Time;durP1;ratioP1;P1;durP2;ratioP2;P2;SDS_P1;SDS_P2;PMS_P1;PMS_P2;Temp;Humidity;BMP_temperature;BMP_pressure;BME280_temperature;BME280_humidity;BME280_pressure;Samples;Min_cycle;Max_cycle;Signal;HPM_P1;HPM_P2
2023/04/30 00:00:59;;;;;;;1999.90;999.90;;;14.70;99.90;;;;;;5053582;28;20021;-72
2023/04/30 00:03:24;;;;;;;1999.90;999.90;;;14.60;99.90;;;;;;5053195;28;20476;-79
2023/04/30 00:05:50;;;;;;;1999.90;999.90;;;14.60;99.90;;;;;;5053859;28;20092;-79
2023/04/30 00:08:16;;;;;;;1999.90;999.90;;;14.60;99.90;;;;;;5053790;28;20029;-72
2023/04/30 00:10:42;;;;;;;1999.90;999.90;;;14.60;99.90;;;;;;5053489;28;20021;-73
2023/04/30 00:13:09;;;;;;;1999.90;999.90;;;14.60;99.90;;;;;;5053403;28;20067;-72
2023/04/30 00:15:35;;;;;;;1999.90;999.90;;;14.50;99.90;;;;;;5053841;28;20017;-79
2023/04/30 00:18:00;;;;;;;1999.90;999.90;;;14.50;99.90;;;;;;5035598;28;20044;-79
2023/04/30 00:20:26;;;;;;;1999.90;999.90;;;14.50;99.90;;;;;;5052997;28;20024;-79
2023/04/30 00:22:52;;;;;;;1999.90;999.90;;;14.50;99.90;;;;;;5052312;28;20447;-73
2023/04/30 00:25:19;;;;;;;1999.90;999.90;;;14.40;99.90;;;;;;5053066;28;20428;-73
2023/04/30 00:27:45;;;;;;;1999.90;999.90;;;14.40;99.90;;;;;;5053600;28;20388;-79
2023/04/30 00:30:11;;;;;;;1999.90;999.90;;;14.40;99.90;;;;;;5035372;28;20029;-79
2023/04/30 00:32:37;;;;;;;1999.90;999.90;;;14.30;99.90;;;;;;5053256;28;20471;-79
2023/04/30 00:35:02;;;;;;;1999.90;999.90;;;14.30;99.90;;;;;;5053219;28;20056;-79
2023/04/30 00:37:28;;;;;;;1999.90;999.90;;;14.20;99.90;;;;;;5052951;28;20049;-72
2023/04/30 00:39:54;;;;;;;1999.90;999.90;;;14.20;99.90;;;;;;5053391;28;20025;-79
2023/04/30 00:42:19;;;;;;;1999.90;999.90;;;14.20;99.90;;;;;;5052937;28;20024;-79
2023/04/30 00:44:45;;;;;;;1999.90;999.90;;;14.20;99.90;;;;;;5035100;28;20369;-79
2023/04/30 00:47:10;;;;;;;1999.90;999.90;;;14.10;99.90;;;;;;5053121;28;20426;-78
2023/04/30 00:49:36;;;;;;;1999.90;999.90;;;14.10;99.90;;;;;;5051112;28;20032;-78
2023/04/30 00:52:02;;;;;;;1999.90;999.90;;;14.10;99.90;;;;;;5052914;28;20396;-79
2023/04/30 00:54:28;;;;;;;1999.90;999.90;;;14.10;99.90;;;;;;5052853;28;20495;-78
2023/04/30 00:56:54;;;;;;;1999.90;999.90;;;14.00;99.90;;;;;;5053275;28;20075;-79
2023/04/30 00:59:20;;;;;;;1999.90;999.90;;;14.00;99.90;;;;;;5052908;28;20028;-79
2023/04/30 01:01:46;;;;;;;1999.90;999.90;;;14.00;99.90;;;;;;5052886;28;20032;-72
2023/04/30 01:04:12;;;;;;;1999.90;999.90;;;14.00;99.90;;;;;;5052775;28;20519;-73
2023/04/30 01:06:38;;;;;;;1999.90;999.90;;;14.10;99.90;;;;;;5052809;28;20052;-79
2023/04/30 01:09:04;;;;;;;1999.90;999.90;;;14.00;99.90;;;;;;5052638;28;20504;-73
2023/04/30 01:11:57;;;;;;;1999.90;999.90;;;14.10;99.90;;;;;;5053028;28;20025;-79
2023/04/30 01:14:42;;;;;;;1999.90;999.90;;;14.10;99.90;;;;;;5052676;28;20017;-79
2023/04/30 01:17:49;;;;;;;1999.90;999.90;;;14.10;99.90;;;;;;5053024;28;20369;-73
2023/04/30 01:20:15;;;;;;;1999.90;999.90;;;14.10;99.90;;;;;;5025619;28;20116;-72
2023/04/30 01:22:56;;;;;;;1999.90;999.90;;;14.20;99.90;;;;;;5051943;28;20100;-72
2023/04/30 01:25:49;;;;;;;1999.90;999.90;;;14.20;99.90;;;;;;5052478;28;20021;-72
2023/04/30 01:28:16;;;;;;;;;;;14.20;99.90;;;;;;5053062;28;20024;-73
2023/04/30 01:30:43;;;;;;;1999.90;999.90;;;14.20;99.90;;;;;;5052792;28;19905;-73
2023/04/30 01:33:10;;;;;;;1999.90;999.90;;;14.20;99.90;;;;;;5056742;28;20468;-73
2023/04/30 01:35:53;;;;;;;1999.90;999.90;;;14.30;99.90;;;;;;5056908;28;20492;-73
2023/04/30 01:38:56;;;;;;;1999.90;999.90;;;14.30;99.90;;;;;;5055948;28;20040;-72
2023/04/30 01:41:34;;;;;;;1999.90;999.90;;;14.30;99.90;;;;;;5038265;28;20025;-73
2023/04/30 01:44:21;;;;;;;1999.90;999.90;;;14.30;99.90;;;;;;5056390;28;20029;-72
2023/04/30 01:46:58;;;;;;;1999.90;999.90;;;14.30;99.90;;;;;;5056514;28;20082;-79
2023/04/30 01:50:07;;;;;;;1999.90;999.90;;;14.30;99.90;;;;;;5055964;28;20028;-72
2023/04/30 01:52:41;;;;;;;1999.90;999.90;;;14.30;99.90;;;;;;5038256;28;20098;-79
2023/04/30 01:55:12;;;;;;;1999.90;999.90;;;14.30;99.90;;;;;;5055982;28;20025;-73
2023/04/30 01:57:42;;;;;;;1999.90;999.90;;;14.20;99.90;;;;;;5056392;28;20108;-72
2023/04/30 02:00:12;;;;;;;1999.90;999.90;;;14.20;99.90;;;;;;5056165;28;20060;-72
2023/04/30 02:02:37;;;;;;;1999.90;999.90;;;14.30;99.90;;;;;;5055635;28;20027;-73
2023/04/30 02:05:03;;;;;;;1999.90;999.90;;;14.30;99.90;;;;;;5056201;28;20138;-79
2023/04/30 02:07:43;;;;;;;1999.90;999.90;;;14.30;99.90;;;;;;5055721;28;20060;-72
2023/04/30 02:10:11;;;;;;;1999.90;999.90;;;14.30;99.90;;;;;;5056001;28;20029;-72
2023/04/30 02:12:37;;;;;;;1999.90;999.90;;;14.30;99.90;;;;;;5055802;28;20229;-73
2023/04/30 02:15:03;;;;;;;1999.90;999.90;;;14.30;99.90;;;;;;5055854;28;20032;-79
2023/04/30 02:17:30;;;;;;;1999.90;999.90;;;14.30;99.90;;;;;;5055544;28;20112;-72
2023/04/30 02:19:55;;;;;;;1999.90;999.90;;;14.30;99.90;;;;;;5055825;28;20035;-72
2023/04/30 02:22:21;;;;;;;1999.90;999.90;;;14.20;99.90;;;;;;5055533;28;20484;-72
2023/04/30 02:24:47;;;;;;;1999.90;999.90;;;14.30;99.90;;;;;;5054868;28;20028;-72
2023/04/30 02:27:12;;;;;;;1999.90;999.90;;;14.20;99.90;;;;;;5055951;28;20035;-79
2023/04/30 02:29:38;;;;;;;1999.90;999.90;;;14.20;99.90;;;;;;5055394;28;20400;-78
2023/04/30 02:32:04;;;;;;;1999.90;999.90;;;14.10;99.90;;;;;;5055601;28;20029;-79
2023/04/30 02:34:29;;;;;;;1999.90;999.90;;;14.10;99.90;;;;;;5055394;28;20052;-72
2023/04/30 02:36:55;;;;;;;1999.90;999.90;;;14.10;99.90;;;;;;5055206;28;20024;-79
2023/04/30 02:39:21;;;;;;;1999.90;999.90;;;14.10;99.90;;;;;;5055444;28;20419;-79
2023/04/30 02:41:46;;;;;;;1999.90;999.90;;;14.10;99.90;;;;;;5055372;28;20029;-79
2023/04/30 02:44:12;;;;;;;1999.90;999.90;;;14.10;99.90;;;;;;5054683;28;20047;-72
2023/04/30 02:46:37;;;;;;;1999.90;999.90;;;14.10;99.90;;;;;;5055448;28;20028;-78
2023/04/30 02:49:03;;;;;;;1999.90;999.90;;;14.00;99.90;;;;;;5054923;28;20021;-72
2023/04/30 02:51:30;;;;;;;1999.90;999.90;;;14.00;99.90;;;;;;5054957;28;20033;-79
2023/04/30 02:53:55;;;;;;;1999.90;999.90;;;14.00;99.90;;;;;;5054922;28;20017;-73
2023/04/30 02:56:21;;;;;;;1999.90;999.90;;;14.00;99.90;;;;;;5054462;28;20027;-79
2023/04/30 02:58:47;;;;;;;1999.90;999.90;;;14.00;99.90;;;;;;5034750;28;20033;-72
2023/04/30 03:01:13;;;;;;;1999.90;999.90;;;14.00;99.90;;;;;;5051568;28;20029;-73
2023/04/30 03:03:38;;;;;;;1999.90;999.90;;;14.00;99.90;;;;;;5054879;28;20029;-72
2023/04/30 03:06:04;;;;;;;1999.90;999.90;;;14.00;99.90;;;;;;5054978;28;20025;-79
2023/04/30 03:08:30;;;;;;;1999.90;999.90;;;14.00;99.90;;;;;;5054471;28;20025;-79
2023/04/30 03:10:56;;;;;;;1999.90;999.90;;;14.00;99.90;;;;;;5054270;28;20025;-73
2023/04/30 03:13:24;;;;;;;1999.90;999.90;;;13.90;99.90;;;;;;5054554;28;20021;-72
2023/04/30 03:15:56;;;;;;;1999.90;999.90;;;13.90;99.90;;;;;;5036710;28;20039;-72
2023/04/30 03:18:22;;;;;;;1999.90;999.90;;;14.00;99.90;;;;;;5054707;28;20025;-72
2023/04/30 03:20:48;;;;;;;1999.90;999.90;;;13.90;99.90;;;;;;5054450;28;20033;-79
2023/04/30 03:23:13;;;;;;;1999.90;999.90;;;13.90;99.90;;;;;;5054531;28;20488;-79
2023/04/30 03:25:39;;;;;;;1999.90;999.90;;;13.90;99.90;;;;;;5053618;28;20472;-78
2023/04/30 03:28:05;;;;;;;1999.90;999.90;;;13.90;99.90;;;;;;5054706;28;20023;-79
2023/04/30 03:30:30;;;;;;;1999.90;999.90;;;13.90;99.90;;;;;;5054168;28;20096;-79
2023/04/30 03:32:56;;;;;;;1999.90;999.90;;;13.80;99.90;;;;;;5035876;28;20029;-72
2023/04/30 03:35:22;;;;;;;1999.90;999.90;;;13.80;99.90;;;;;;5054393;28;20502;-79
2023/04/30 03:37:47;;;;;;;1999.90;999.90;;;13.70;99.90;;;;;;5054273;28;20025;-72
2023/04/30 03:40:13;;;;;;;1999.90;999.90;;;13.70;99.90;;;;;;5054046;28;20029;-72
2023/04/30 03:42:39;;;;;;;1999.90;999.90;;;13.70;99.90;;;;;;5054174;28;20051;-73
2023/04/30 03:45:05;;;;;;;1999.90;999.90;;;13.60;99.90;;;;;;5053977;28;20024;-79
2023/04/30 03:47:30;;;;;;;1999.90;999.90;;;13.70;99.90;;;;;;5036298;28;20024;-79
2023/04/30 03:49:56;;;;;;;1999.90;999.90;;;13.70;99.90;;;;;;5054030;28;20476;-79
2023/04/30 03:52:22;;;;;;;1999.90;999.90;;;13.60;99.90;;;;;;5053828;28;20052;-79
2023/04/30 03:54:47;;;;;;;1999.90;999.90;;;13.60;99.90;;;;;;5052613;28;20024;-72
2023/04/30 03:57:13;;;;;;;1999.90;999.90;;;13.60;99.90;;;;;;5054294;28;20024;-79
2023/04/30 03:59:40;;;;;;;1999.90;999.90;;;13.60;99.90;;;;;;5053769;28;20365;-73
2023/04/30 04:02:06;;;;;;;1999.90;999.90;;;13.50;99.90;;;;;;5053995;28;20464;-79
2023/04/30 04:04:32;;;;;;;1999.90;999.90;;;13.50;99.90;;;;;;5053630;28;20423;-73
2023/04/30 04:06:58;;;;;;;1999.90;999.90;;;13.50;99.90;;;;;;5053589;28;20025;-72
2023/04/30 04:09:24;;;;;;;1999.90;999.90;;;13.50;99.90;;;;;;5053492;28;20075;-73
2023/04/30 04:11:49;;;;;;;1999.90;999.90;;;13.50;99.90;;;;;;5036098;28;20029;-79
2023/04/30 04:14:15;;;;;;;1999.90;999.90;;;13.50;99.90;;;;;;5053470;28;20420;-73
2023/04/30 04:16:41;;;;;;;1999.90;999.90;;;13.50;99.90;;;;;;5053386;28;20025;-73
2023/04/30 04:19:07;;;;;;;1999.90;999.90;;;13.50;99.90;;;;;;5034499;28;20036;-73
2023/04/30 04:21:33;;;;;;;1999.90;999.90;;;13.50;99.90;;;;;;5035483;28;20029;-79
2023/04/30 04:23:58;;;;;;;1999.90;999.90;;;13.40;99.90;;;;;;5053555;28;20063;-79
2023/04/30 04:26:24;;;;;;;1999.90;999.90;;;13.40;99.90;;;;;;5052700;28;20029;-79
2023/04/30 04:28:50;;;;;;;1999.90;999.90;;;13.40;99.90;;;;;;5053480;28;20444;-72
2023/04/30 04:31:17;;;;;;;1999.90;999.90;;;13.40;99.90;;;;;;5035315;28;20017;-73
2023/04/30 04:33:43;;;;;;;1999.90;999.90;;;13.30;99.90;;;;;;5053529;28;20400;-78
2023/04/30 04:36:09;;;;;;;1999.90;999.90;;;13.30;99.90;;;;;;5053249;28;20032;-79
2023/04/30 04:38:34;;;;;;;1999.90;999.90;;;13.20;99.90;;;;;;5052922;28;20025;-72
2023/04/30 04:41:00;;;;;;;1999.90;999.90;;;13.20;99.90;;;;;;5053103;28;20392;-79
2023/04/30 04:43:26;;;;;;;1999.90;999.90;;;13.20;99.90;;;;;;5052806;28;20021;-72
2023/04/30 04:45:51;;;;;;;1999.90;999.90;;;13.10;99.90;;;;;;5053025;28;20051;-72
2023/04/30 04:48:17;;;;;;;1999.90;999.90;;;13.10;99.90;;;;;;5053099;28;20033;-79
2023/04/30 04:50:43;;;;;;;1999.90;999.90;;;13.10;99.90;;;;;;5052856;28;20025;-73
2023/04/30 04:53:08;;;;;;;1999.90;999.90;;;13.00;99.90;;;;;;5052902;28;20049;-79
2023/04/30 04:55:35;;;;;;;1999.90;999.90;;;13.00;99.90;;;;;;5051625;28;20115;-73
2023/04/30 04:58:00;;;;;;;1999.90;999.90;;;13.00;99.90;;;;;;5053022;28;20025;-72
2023/04/30 05:00:26;;;;;;;1999.90;999.90;;;12.90;99.90;;;;;;5053059;28;20028;-79
2023/04/30 05:02:52;;;;;;;1999.90;999.90;;;12.90;99.90;;;;;;5052908;28;20025;-79
2023/04/30 05:05:17;;;;;;;1999.90;999.90;;;12.80;99.90;;;;;;5053041;28;20369;-79
2023/04/30 05:07:43;;;;;;;1999.90;999.90;;;12.90;99.90;;;;;;5058908;28;20032;-72
2023/04/30 05:10:09;;;;;;;1999.90;999.90;;;12.80;99.90;;;;;;5059661;28;20095;-73
2023/04/30 05:12:35;;;;;;;1999.90;999.90;;;12.80;99.90;;;;;;5059476;28;20036;-72
2023/04/30 05:15:00;;;;;;;1999.90;999.90;;;12.80;99.90;;;;;;5059583;28;20103;-79
2023/04/30 05:17:26;;;;;;;1999.90;999.90;;;12.80;99.90;;;;;;5041406;28;20038;-79
2023/04/30 05:19:52;;;;;;;1999.90;999.90;;;12.70;99.90;;;;;;5059504;28;20025;-72
2023/04/30 05:22:17;;;;;;;1999.90;999.90;;;12.70;99.90;;;;;;5059171;28;20234;-72
2023/04/30 05:24:43;;;;;;;1999.90;999.90;;;12.60;99.90;;;;;;5059263;28;20564;-72
2023/04/30 05:27:09;;;;;;;1999.90;999.90;;;12.70;99.90;;;;;;5058548;28;20021;-79
2023/04/30 05:29:34;;;;;;;1999.90;999.90;;;12.70;99.90;;;;;;5059663;28;20025;-79
2023/04/30 05:32:01;;;;;;;1999.90;999.90;;;12.70;99.90;;;;;;5059206;28;20021;-79
2023/04/30 05:34:26;;;;;;;1999.90;999.90;;;12.70;99.90;;;;;;5059044;28;20037;-72
2023/04/30 05:36:52;;;;;;;1999.90;999.90;;;12.70;99.90;;;;;;5059209;28;20028;-73
2023/04/30 05:39:18;;;;;;;1999.90;999.90;;;12.70;99.90;;;;;;5059418;28;20070;-79
2023/04/30 05:41:43;;;;;;;1999.90;999.90;;;12.60;99.90;;;;;;5059260;28;20033;-79
2023/04/30 05:44:09;;;;;;;1999.90;999.90;;;12.60;99.90;;;;;;5059215;28;20021;-79
2023/04/30 05:46:35;;;;;;;1999.90;999.90;;;12.60;99.90;;;;;;5059053;28;20041;-73
2023/04/30 05:49:01;;;;;;;1999.90;999.90;;;12.60;99.90;;;;;;5059018;28;20028;-79
2023/04/30 05:51:27;;;;;;;1999.90;999.90;;;12.60;99.90;;;;;;5058934;28;20630;-72
2023/04/30 05:53:53;;;;;;;1999.90;999.90;;;12.50;99.90;;;;;;5059405;28;20021;-73
2023/04/30 05:56:19;;;;;;;1999.90;999.90;;;12.50;99.90;;;;;;5058911;28;20029;-73
2023/04/30 05:58:45;;;;;;;1999.90;999.90;;;12.50;99.90;;;;;;5059184;28;20021;-79
2023/04/30 06:01:11;;;;;;;1999.90;999.90;;;12.40;99.90;;;;;;5058884;28;20033;-72
2023/04/30 06:03:37;;;;;;;1999.90;999.90;;;12.40;99.90;;;;;;5059135;28;20074;-72
2023/04/30 06:06:03;;;;;;;1999.90;999.90;;;12.40;99.90;;;;;;5059059;28;20154;-79
2023/04/30 06:08:29;;;;;;;1999.90;999.90;;;12.40;99.90;;;;;;5068030;28;20040;-79
2023/04/30 06:10:55;;;;;;;1999.90;999.90;;;12.40;99.90;;;;;;5079349;28;20502;-73
2023/04/30 06:13:22;;;;;;;1999.90;999.90;;;12.50;99.90;;;;;;5078888;28;20016;-72
2023/04/30 06:15:47;;;;;;;1999.90;999.90;;;12.50;99.90;;;;;;5079309;28;20036;-79
2023/04/30 06:18:13;;;;;;;1999.90;999.90;;;12.50;99.90;;;;;;5076315;28;20046;-72
2023/04/30 06:20:39;;;;;;;1999.90;999.90;;;12.60;99.90;;;;;;5075521;28;20103;-78
2023/04/30 06:23:05;;;;;;;1999.90;999.90;;;12.60;99.90;;;;;;5075567;28;20024;-79
2023/04/30 06:25:31;;;;;;;1999.90;999.90;;;12.60;99.90;;;;;;5075435;28;20043;-79
2023/04/30 06:27:56;;;;;;;1999.90;999.90;;;12.70;99.90;;;;;;5074749;28;20539;-72
2023/04/30 06:30:22;;;;;;;1999.90;999.90;;;12.60;99.90;;;;;;5075871;28;20027;-72
2023/04/30 06:32:47;;;;;;;1999.90;999.90;;;12.70;99.90;;;;;;5075820;28;20353;-72
2023/04/30 06:35:13;;;;;;;1999.90;999.90;;;12.80;99.90;;;;;;5075458;28;20028;-79
2023/04/30 06:37:39;;;;;;;1999.90;999.90;;;12.90;99.90;;;;;;5057209;28;20107;-79
2023/04/30 06:40:06;;;;;;;1999.90;999.90;;;13.00;99.90;;;;;;5075486;28;20029;-72
2023/04/30 06:42:35;;;;;;;1999.90;999.90;;;13.10;99.90;;;;;;5075337;28;20104;-72
2023/04/30 06:45:07;;;;;;;1999.90;999.90;;;13.30;99.90;;;;;;5053778;28;20025;-79
2023/04/30 06:47:36;;;;;;;1999.90;999.90;;;13.40;99.90;;;;;;5055285;28;20070;-79
2023/04/30 06:50:03;;;;;;;1999.90;999.90;;;13.60;99.90;;;;;;5055269;28;20380;-79
2023/04/30 06:52:29;;;;;;;1999.90;999.90;;;13.70;99.90;;;;;;5053500;28;20183;-73
2023/04/30 06:54:55;;;;;;;1999.90;999.90;;;13.80;99.90;;;;;;5054914;28;20508;-72
2023/04/30 06:57:21;;;;;;;1999.90;999.90;;;13.90;99.90;;;;;;5055140;28;20151;-79
2023/04/30 06:59:47;;;;;;;1999.90;999.90;;;14.00;99.90;;;;;;5055009;28;20408;-73
2023/04/30 07:02:12;;;;;;;1999.90;999.90;;;14.10;99.90;;;;;;5054417;28;20033;-79
2023/04/30 07:04:38;;;;;;;1999.90;999.90;;;14.20;99.90;;;;;;5054997;28;20083;-73
2023/04/30 07:07:04;;;;;;;1999.90;999.90;;;14.30;99.90;;;;;;5055084;28;20052;-72
2023/04/30 07:09:29;;;;;;;1999.90;999.90;;;14.40;99.90;;;;;;5054482;28;20025;-72
2023/04/30 07:11:56;;;;;;;1999.90;999.90;;;14.50;99.90;;;;;;5054966;28;20025;-72
2023/04/30 07:14:21;;;;;;;1999.90;999.90;;;14.60;99.90;;;;;;5054683;28;20028;-79
2023/04/30 07:16:49;;;;;;;1999.90;999.90;;;14.70;99.90;;;;;;5036760;28;20025;-79
2023/04/30 07:19:15;;;;;;;1999.90;999.90;;;14.80;99.90;;;;;;5035498;28;20033;-73
2023/04/30 07:21:41;;;;;;;1999.90;999.90;;;15.00;99.90;;;;;;5054386;28;20041;-73
2023/04/30 07:24:06;;;;;;;1999.90;999.90;;;15.20;99.90;;;;;;5054307;28;20028;-72
2023/04/30 07:26:32;;;;;;;1999.90;999.90;;;15.20;99.90;;;;;;5054484;28;20032;-79
2023/04/30 07:28:58;;;;;;;1999.90;999.90;;;15.40;99.90;;;;;;5053480;28;20036;-79
2023/04/30 07:31:24;;;;;;;1999.90;999.90;;;15.50;99.90;;;;;;5054874;28;20028;-79
2023/04/30 07:33:51;;;;;;;1999.90;999.90;;;15.70;99.90;;;;;;5036408;28;20522;-73
2023/04/30 07:36:16;;;;;;;1999.90;999.90;;;15.90;99.90;;;;;;5054475;28;20025;-78
2023/04/30 07:38:42;;;;;;;1999.90;999.90;;;15.90;99.90;;;;;;5053979;28;20033;-73
2023/04/30 07:41:10;;;;;;;1999.90;999.90;;;16.10;99.90;;;;;;5054306;28;20040;-79
2023/04/30 07:43:36;;;;;;;1999.90;999.90;;;16.30;99.90;;;;;;5054134;28;20395;-79
2023/04/30 07:46:02;;;;;;;1999.90;999.90;;;16.50;99.90;;;;;;5054235;28;20036;-73
2023/04/30 07:48:28;;;;;;;1999.90;999.90;;;16.80;99.90;;;;;;5053862;28;20024;-73
2023/04/30 07:50:55;;;;;;;1999.90;999.90;;;17.10;99.90;;;;;;5053499;28;20462;-79
2023/04/30 07:53:22;;;;;;;1999.90;999.90;;;18.20;99.90;;;;;;5053359;28;20034;-79
2023/04/30 07:55:47;;;;;;;1999.90;999.90;;;21.30;99.90;;;;;;5054456;28;20052;-80
2023/04/30 07:58:13;;;;;;;1999.90;999.90;;;23.30;99.90;;;;;;5035845;28;20444;-73
2023/04/30 08:00:39;;;;;;;1999.90;999.90;;;24.80;99.90;;;;;;5053645;28;20036;-79
2023/04/30 08:03:05;;;;;;;1999.90;999.90;;;25.70;99.90;;;;;;5035734;28;20068;-80
2023/04/30 08:05:30;;;;;;;1999.90;999.90;;;26.30;99.90;;;;;;5035942;28;20021;-80
2023/04/30 08:07:56;;;;;;;1999.90;999.90;;;26.60;99.90;;;;;;5053758;28;20059;-80
2023/04/30 08:10:22;;;;;;;1999.90;999.90;;;27.20;99.90;;;;;;5053515;28;20013;-73
2023/04/30 08:12:48;;;;;;;1999.90;999.90;;;27.30;99.90;;;;;;5053409;28;20103;-73
2023/04/30 08:15:13;;;;;;;1999.90;999.90;;;27.40;99.90;;;;;;5053762;28;20025;-81
2023/04/30 08:17:39;;;;;;;1999.90;999.90;;;27.50;99.90;;;;;;5053860;28;20024;-80
2023/04/30 08:20:05;;;;;;;1999.90;999.90;;;28.30;99.90;;;;;;5054001;28;20456;-80
2023/04/30 08:22:31;;;;;;;1999.90;999.90;;;28.40;99.90;;;;;;5053234;28;20028;-81
2023/04/30 08:25:00;;;;;;;1999.90;999.90;;;29.70;99.90;;;;;;5053118;28;20036;-73
2023/04/30 08:27:26;;;;;;;1999.90;999.90;;;29.30;98.90;;;;;;5053501;28;20051;-74
2023/04/30 08:29:51;;;;;;;1999.90;999.90;;;29.20;98.90;;;;;;5052669;28;20419;-81
2023/04/30 08:32:18;;;;;;;1999.90;999.90;;;29.30;98.70;;;;;;5053585;28;20043;-80
2023/04/30 08:34:44;;;;;;;1999.90;999.90;;;29.40;98.20;;;;;;5035315;28;20029;-77
2023/04/30 08:37:10;;;;;;;1999.90;999.90;;;29.60;98.90;;;;;;5053256;28;20036;-74
2023/04/30 08:39:35;;;;;;;1999.90;999.90;;;28.90;98.00;;;;;;5053347;28;20029;-74
2023/04/30 08:42:07;;;;;;;1999.90;999.90;;;29.20;99.90;;;;;;5052371;28;20029;-81
2023/04/30 08:44:35;;;;;;;1999.90;999.90;;;29.90;99.50;;;;;;5053211;28;20388;-82
2023/04/30 08:47:02;;;;;;;1999.90;999.90;;;30.20;97.50;;;;;;5053114;28;20047;-82
2023/04/30 08:49:31;;;;;;;1999.90;999.90;;;30.10;96.00;;;;;;5052897;28;20029;-74
2023/04/30 08:51:59;;;;;;;1999.90;999.90;;;29.70;95.60;;;;;;5053011;28;20045;-72
2023/04/30 08:54:27;;;;;;;1999.90;999.90;;;29.40;98.60;;;;;;5052816;28;20051;-79
2023/04/30 08:56:53;;;;;;;1999.90;999.90;;;29.00;97.60;;;;;;5053150;28;20092;-72
2023/04/30 08:59:18;;;;;;;1999.90;999.90;;;30.50;96.90;;;;;;5053004;28;20024;-79
2023/04/30 09:01:44;;;;;;;1999.90;999.90;;;30.30;95.70;;;;;;5052871;28;20225;-75
2023/04/30 09:04:10;;;;;;;1999.90;999.90;;;30.20;96.40;;;;;;5051666;28;20032;-79
2023/04/30 09:06:36;;;;;;;1999.90;999.90;;;30.20;95.60;;;;;;5052968;28;20021;-72
2023/04/30 09:09:12;;;;;;;1999.90;999.90;;;30.40;94.60;;;;;;5052738;28;20033;-72
2023/04/30 09:11:38;;;;;;;1999.90;999.90;;;31.00;95.50;;;;;;5052695;28;20183;-79
2023/04/30 09:14:04;;;;;;;1999.90;999.90;;;30.60;94.80;;;;;;5052977;28;20021;-72
2023/04/30 09:16:44;;;;;;;1999.90;999.90;;;30.00;95.20;;;;;;5052765;28;20100;-72
2023/04/30 09:19:26;;;;;;;1999.90;999.90;;;30.00;94.90;;;;;;5052673;28;20025;-79
2023/04/30 09:21:52;;;;;;;1999.90;999.90;;;30.50;95.00;;;;;;5052927;28;20059;-73
2023/04/30 09:24:18;;;;;;;1999.90;999.90;;;30.20;94.70;;;;;;5052640;28;20434;-78
2023/04/30 09:26:46;;;;;;;1999.90;999.90;;;30.10;94.90;;;;;;5052709;28;20040;-80
2023/04/30 09:29:12;;;;;;;1999.90;999.90;;;30.50;95.00;;;;;;5052379;28;20472;-72
2023/04/30 09:31:41;;;;;;;1999.90;999.90;;;29.90;94.20;;;;;;5051947;28;20052;-72
2023/04/30 09:34:07;;;;;;;1999.90;999.90;;;30.00;94.80;;;;;;5052453;28;20036;-72
2023/04/30 09:36:33;;;;;;;1999.90;999.90;;;30.10;94.70;;;;;;5052891;28;20135;-79
2023/04/30 09:39:16;;;;;;;1999.90;999.90;;;31.00;94.00;;;;;;5052492;28;20064;-79
2023/04/30 09:41:42;;;;;;;1999.90;999.90;;;30.60;93.40;;;;;;5052472;28;20060;-72
2023/04/30 09:44:24;;;;;;;1999.90;999.90;;;31.30;92.10;;;;;;5054387;28;20044;-72
2023/04/30 09:46:50;;;;;;;1999.90;999.90;;;31.10;93.60;;;;;;5053894;28;20075;-73
2023/04/30 09:49:18;;;;;;;1999.90;999.90;;;30.20;92.80;;;;;;5052520;28;20029;-72
2023/04/30 09:52:00;;;;;;;1999.90;999.90;;;30.30;93.60;;;;;;5052668;28;20052;-79
2023/04/30 09:54:26;;;;;;;;;;;31.30;93.80;;;;;;5055498;28;20016;-80
2023/04/30 09:56:55;;;;;;;1999.90;999.90;;;30.70;94.60;;;;;;5056320;28;19945;-72
2023/04/30 09:59:22;;;;;;;1999.90;999.90;;;30.00;94.30;;;;;;5056067;28;20108;-79
2023/04/30 10:01:50;;;;;;;1999.90;999.90;;;30.50;95.10;;;;;;5056022;28;20029;-73
2023/04/30 10:04:16;;;;;;;1999.90;999.90;;;31.00;94.00;;;;;;5055797;28;20047;-79
2023/04/30 10:06:42;;;;;;;1999.90;999.90;;;30.80;92.50;;;;;;5056243;28;20021;-79
2023/04/30 10:09:10;;;;;;;1999.90;999.90;;;31.00;92.20;;;;;;5055904;28;20021;-73
2023/04/30 10:11:37;;;;;;;1999.90;999.90;;;31.00;94.70;;;;;;5056045;28;20021;-72
2023/04/30 10:14:09;;;;;;;1999.90;999.90;;;30.90;92.00;;;;;;5055966;28;20033;-79
2023/04/30 10:16:44;;;;;;;1999.90;999.90;;;31.30;93.10;;;;;;5038299;28;20391;-79
2023/04/30 10:19:17;;;;;;;1999.90;999.90;;;29.70;95.00;;;;;;5054879;28;20035;-79
2023/04/30 10:21:45;;;;;;;1999.90;999.90;;;26.90;95.20;;;;;;5055833;28;20448;-74
2023/04/30 10:24:13;;;;;;;1999.90;999.90;;;25.20;98.80;;;;;;5055827;28;20025;-81
2023/04/30 10:26:40;;;;;;;1999.90;999.90;;;24.50;99.90;;;;;;5055397;28;20044;-80
2023/04/30 10:29:06;;;;;;;1999.90;999.90;;;25.90;99.90;;;;;;5055790;28;20484;-81
2023/04/30 10:31:33;;;;;;;1999.90;999.90;;;26.50;98.10;;;;;;5054427;28;20029;-81
2023/04/30 10:34:23;;;;;;;1999.90;999.90;;;27.70;97.50;;;;;;5055859;28;20502;-75
2023/04/30 10:36:54;;;;;;;1999.90;999.90;;;28.00;99.40;;;;;;5055395;28;20067;-81
2023/04/30 10:39:22;;;;;;;1999.90;999.90;;;28.00;96.80;;;;;;5037419;28;20052;-82
2023/04/30 10:41:48;;;;;;;1999.90;999.90;;;28.50;96.50;;;;;;5055344;28;20384;-82
2023/04/30 10:44:20;;;;;;;1999.90;999.90;;;28.30;96.40;;;;;;5055383;28;20009;-82
2023/04/30 10:46:46;;;;;;;1999.90;999.90;;;29.60;95.30;;;;;;5055277;28;20439;-75
2023/04/30 10:49:13;;;;;;;1999.90;999.90;;;27.50;96.50;;;;;;5055077;28;20022;-81
2023/04/30 10:51:57;;;;;;;1999.90;999.90;;;25.70;99.50;;;;;;5055006;28;20048;-81
2023/04/30 10:54:27;;;;;;;1999.90;999.90;;;26.20;98.90;;;;;;5054993;28;20024;-81
2023/04/30 10:57:18;;;;;;;1999.90;999.90;;;26.40;98.80;;;;;;5037190;28;20106;-81
2023/04/30 11:00:13;;;;;;;1999.90;999.90;;;27.00;98.40;;;;;;5055007;28;20067;-75
2023/04/30 11:02:41;;;;;;;1999.90;999.90;;;26.70;98.90;;;;;;5054599;28;20112;-74
2023/04/30 11:05:07;;;;;;;1999.90;999.90;;;26.50;98.60;;;;;;5054702;28;20013;-81
2023/04/30 11:07:33;;;;;;;1999.90;999.90;;;26.10;99.00;;;;;;5036788;28;20022;-81
2023/04/30 11:10:01;;;;;;;1999.90;999.90;;;25.80;99.30;;;;;;5037229;28;20027;-81
2023/04/30 11:12:27;;;;;;;1999.90;999.90;;;25.60;99.70;;;;;;5036676;28;20028;-81
2023/04/30 11:15:00;;;;;;;1999.90;999.90;;;25.80;99.90;;;;;;5054892;28;20021;-75
2023/04/30 11:17:26;;;;;;;1999.90;999.90;;;26.70;98.60;;;;;;5055513;28;20031;-82
2023/04/30 11:19:53;;;;;;;1999.90;999.90;;;27.70;98.20;;;;;;5054520;28;20017;-75
2023/04/30 11:22:21;;;;;;;1999.90;999.90;;;27.20;97.70;;;;;;5054345;28;20135;-80
2023/04/30 11:24:54;;;;;;;1999.90;999.90;;;25.90;99.10;;;;;;5054387;28;20112;-80
2023/04/30 11:27:28;;;;;;;1999.90;999.90;;;25.10;99.90;;;;;;5054547;28;20104;-74
2023/04/30 11:29:55;;;;;;;1999.90;999.90;;;24.00;99.90;;;;;;5054840;28;20028;-81
2023/04/30 11:32:23;;;;;;;1999.90;999.90;;;25.00;99.90;;;;;;5053636;28;20033;-81
2023/04/30 11:34:49;;;;;;;1999.90;999.90;;;26.00;99.90;;;;;;5054456;28;20032;-75
2023/04/30 11:37:31;;;;;;;1999.90;999.90;;;25.70;99.40;;;;;;5054548;28;20029;-80
2023/04/30 11:40:01;;;;;;;1999.90;999.90;;;25.00;99.90;;;;;;5054138;28;20081;-74
2023/04/30 11:42:28;;;;;;;1999.90;999.90;;;25.80;99.90;;;;;;5054075;28;20060;-74
2023/04/30 11:45:01;;;;;;;1999.90;999.90;;;25.80;99.90;;;;;;5054111;28;20025;-80
2023/04/30 11:47:27;;;;;;;1999.90;999.90;;;26.00;99.90;;;;;;5036245;28;20022;-80
2023/04/30 11:49:55;;;;;;;1999.90;999.90;;;26.50;99.40;;;;;;5054221;28;20027;-81
2023/04/30 11:52:24;;;;;;;1999.90;999.90;;;26.50;98.90;;;;;;5053913;28;20049;-74
2023/04/30 11:54:53;;;;;;;1999.90;999.90;;;26.30;99.00;;;;;;5053908;28;20029;-80
2023/04/30 11:57:19;;;;;;;1999.90;999.90;;;25.80;99.90;;;;;;5053742;28;20048;-81
2023/04/30 11:59:45;;;;;;;1999.90;999.90;;;25.40;99.90;;;;;;5053746;28;20024;-80
2023/04/30 12:02:15;;;;;;;1999.90;999.90;;;24.70;99.90;;;;;;5053720;28;20025;-80
2023/04/30 12:04:42;;;;;;;1999.90;999.90;;;23.30;99.90;;;;;;5053603;28;20017;-74